createdAt,value
2018-02-23T00:01:16.120Z,18.50
2018-02-23T00:03:42.546Z,17.60
2018-02-23T00:06:10.408Z,20.10
2018-02-23T00:08:36.761Z,18.35
2018-02-23T00:11:03.861Z,17.62
2018-02-23T00:13:30.975Z,18.05
2018-02-23T00:15:57.342Z,17.60
2018-02-23T00:18:23.715Z,18.05
2018-02-23T00:20:50.060Z,19.27
2018-02-23T00:23:17.162Z,17.75
2018-02-23T00:25:43.532Z,17.17
2018-02-23T00:28:10.644Z,18.12
2018-02-23T00:30:37.002Z,18.05
2018-02-23T00:33:03.367Z,17.50
2018-02-23T00:35:29.791Z,16.58
2018-02-23T00:37:56.163Z,16.90
2018-02-23T00:40:22.537Z,18.67
2018-02-23T00:42:49.646Z,17.85
2018-02-23T00:45:16.036Z,18.25
2018-02-23T00:47:42.401Z,17.92
2018-02-23T00:50:09.498Z,18.25
2018-02-23T00:52:36.599Z,17.15
2018-02-23T00:55:02.962Z,17.17
2018-02-23T00:57:29.319Z,15.95
2018-02-23T00:59:56.446Z,16.25
2018-02-23T01:02:22.804Z,16.85
2018-02-23T01:04:49.180Z,16.83
2018-02-23T01:07:15.569Z,17.48
2018-02-23T01:09:41.950Z,16.80
2018-02-23T01:12:08.366Z,17.12
2018-02-23T01:14:34.763Z,17.33
2018-02-23T01:17:01.119Z,15.80
2018-02-23T01:19:27.499Z,16.50
2018-02-23T01:21:53.886Z,16.30
2018-02-23T01:24:20.260Z,17.30
2018-02-23T01:26:46.624Z,18.02
2018-02-23T01:29:12.989Z,18.30
2018-02-23T01:31:39.345Z,18.75
2018-02-23T01:34:05.719Z,17.42
2018-02-23T01:36:32.070Z,19.83
2018-02-23T01:38:58.429Z,19.37
2018-02-23T01:41:24.797Z,18.17
2018-02-23T01:43:51.882Z,17.60
2018-02-23T01:46:18.286Z,16.85
2018-02-23T01:48:44.666Z,18.10
2018-02-23T01:51:11.018Z,16.12
2018-02-23T01:53:37.380Z,19.37
2018-02-23T01:56:03.764Z,18.62
2018-02-23T01:58:30.124Z,18.40
2018-02-23T02:00:57.224Z,16.50
2018-02-23T02:03:23.634Z,16.77
2018-02-23T02:05:49.999Z,18.48
2018-02-23T02:08:16.396Z,18.42
2018-02-23T02:10:42.777Z,18.20
2018-02-23T02:13:09.194Z,17.33
2018-02-23T02:15:35.579Z,19.30
2018-02-23T02:18:02.749Z,19.08
2018-02-23T02:20:29.123Z,18.17
2018-02-23T02:22:55.489Z,19.75
2018-02-23T02:25:22.611Z,19.95
2018-02-23T02:27:49.000Z,19.15
2018-02-23T02:30:15.380Z,18.08
2018-02-23T02:32:41.740Z,18.98
2018-02-23T02:35:08.084Z,19.12
2018-02-23T02:37:34.455Z,19.27
2018-02-23T02:40:00.819Z,20.02
2018-02-23T02:42:27.919Z,20.77
2018-02-23T02:44:54.329Z,20.58
2018-02-23T02:47:20.705Z,19.58
2018-02-23T02:49:47.050Z,20.92
2018-02-23T02:52:13.435Z,20.62
2018-02-23T02:54:40.550Z,20.73
2018-02-23T02:57:07.658Z,19.85
2018-02-23T02:59:34.044Z,21.48
2018-02-23T03:02:00.410Z,20.20
2018-02-23T03:04:26.779Z,21.40
2018-02-23T03:06:53.872Z,21.02
2018-02-23T03:09:20.227Z,21.20
2018-02-23T03:11:46.602Z,21.20
2018-02-23T03:14:15.804Z,21.77
2018-02-23T03:16:42.200Z,21.58
2018-02-23T03:19:08.584Z,23.17
2018-02-23T03:21:34.970Z,22.20
2018-02-23T03:24:01.330Z,19.95
2018-02-23T03:26:28.431Z,21.05
2018-02-23T03:28:54.801Z,20.48
2018-02-23T03:31:21.175Z,21.00
2018-02-23T03:33:47.564Z,18.62
2018-02-23T03:36:14.665Z,20.30
2018-02-23T03:38:41.061Z,20.05
2018-02-23T03:41:07.432Z,20.83
2018-02-23T03:43:33.790Z,21.33
2018-02-23T03:46:00.901Z,21.85
2018-02-23T03:48:27.267Z,19.92
2018-02-23T03:50:53.635Z,21.05
2018-02-23T03:53:20.009Z,22.40
2018-02-23T03:55:46.375Z,21.12
2018-02-23T03:58:13.472Z,20.80
2018-02-23T04:00:39.842Z,23.42
2018-02-23T04:03:06.952Z,20.35
2018-02-23T04:05:33.304Z,20.62
2018-02-23T04:07:59.688Z,22.17
2018-02-23T04:10:26.050Z,19.30
2018-02-23T04:12:52.415Z,20.42
2018-02-23T04:15:18.788Z,19.50
2018-02-23T04:17:45.152Z,20.83
2018-02-23T04:20:11.532Z,21.12
2018-02-23T04:22:37.902Z,19.83
2018-02-23T04:25:04.295Z,21.55
2018-02-23T04:27:31.400Z,22.37
2018-02-23T04:29:57.771Z,21.05
2018-02-23T04:32:24.137Z,21.15
2018-02-23T04:34:50.494Z,23.27
2018-02-23T04:37:16.843Z,20.58
2018-02-23T04:39:43.244Z,21.58
2018-02-23T04:42:09.614Z,21.55
2018-02-23T04:44:36.718Z,22.65
2018-02-23T04:47:03.090Z,22.75
2018-02-23T04:49:29.476Z,22.25
2018-02-23T04:51:55.838Z,23.17
2018-02-23T04:54:22.212Z,25.27
2018-02-23T04:56:48.575Z,22.08
2018-02-23T04:59:14.939Z,20.58
2018-02-23T05:01:42.779Z,23.20
2018-02-23T05:04:09.154Z,22.08
2018-02-23T05:06:36.246Z,24.55
2018-02-23T05:09:02.655Z,20.33
2018-02-23T05:11:29.035Z,21.02
2018-02-23T05:13:55.412Z,22.13
2018-02-23T05:16:21.870Z,23.33
2018-02-23T05:18:48.278Z,22.35
2018-02-23T05:21:14.658Z,22.75
2018-02-23T05:23:41.030Z,21.90
2018-02-23T05:26:07.441Z,21.50
2018-02-23T05:28:33.919Z,22.83
2018-02-23T05:31:00.314Z,23.05
2018-02-23T05:33:27.418Z,22.73
2018-02-23T05:35:53.779Z,22.95
2018-02-23T05:38:24.090Z,22.42
2018-02-23T05:40:50.450Z,23.08
2018-02-23T05:43:16.802Z,22.45
2018-02-23T05:45:43.946Z,22.27
2018-02-23T05:48:11.056Z,24.55
2018-02-23T05:50:37.423Z,23.38
2018-02-23T05:53:04.652Z,23.83
2018-02-23T05:55:31.030Z,23.35
2018-02-23T05:57:57.387Z,23.85
2018-02-23T06:00:23.754Z,21.87
2018-02-23T06:02:50.867Z,22.40
2018-02-23T06:05:17.286Z,22.87
2018-02-23T06:07:43.674Z,23.92
2018-02-23T06:10:10.766Z,22.87
2018-02-23T06:12:37.119Z,21.85
2018-02-23T06:15:03.503Z,22.10
2018-02-23T06:17:35.910Z,23.80
2018-02-23T06:20:08.380Z,23.87
2018-02-23T06:22:34.781Z,21.52
2018-02-23T06:25:01.892Z,24.40
2018-02-23T06:27:29.011Z,24.30
2018-02-23T06:29:55.382Z,21.92
2018-02-23T06:32:22.535Z,22.55
2018-02-23T06:34:49.673Z,23.95
2018-02-23T06:37:16.046Z,25.00
2018-02-23T06:39:42.437Z,21.73
2018-02-23T06:42:09.556Z,23.48
2018-02-23T06:44:35.922Z,21.87
2018-02-23T06:47:08.291Z,22.90
2018-02-23T06:49:34.672Z,21.55
2018-02-23T06:52:01.082Z,22.08
2018-02-23T06:54:27.455Z,22.42
2018-02-23T06:56:53.859Z,21.92
2018-02-23T06:59:20.218Z,21.52
2018-02-23T07:01:46.621Z,21.15
2018-02-23T07:04:13.003Z,20.90
2018-02-23T07:06:39.370Z,20.88
2018-02-23T07:09:06.485Z,20.77
2018-02-23T07:11:32.855Z,21.48
2018-02-23T07:13:59.203Z,21.62
2018-02-23T07:16:25.584Z,21.83
2018-02-23T07:18:51.936Z,21.70
2018-02-23T07:21:19.024Z,22.37
2018-02-23T07:23:45.401Z,23.00
2018-02-23T07:26:12.509Z,22.67
2018-02-23T07:28:38.867Z,21.10
2018-02-23T07:31:05.238Z,21.65
2018-02-23T07:33:31.599Z,20.27
2018-02-23T07:35:57.991Z,21.05
2018-02-23T07:38:24.368Z,22.95
2018-02-23T07:40:50.743Z,20.33
2018-02-23T07:43:17.861Z,21.15
2018-02-23T07:45:44.275Z,19.12
2018-02-23T07:48:10.683Z,21.33
2018-02-23T07:50:37.123Z,20.35
2018-02-23T07:53:03.522Z,19.80
2018-02-23T07:55:30.642Z,23.45
2018-02-23T07:57:58.508Z,33.05
2018-02-23T08:00:24.909Z,20.98
2018-02-23T08:02:51.301Z,18.48
2018-02-23T08:05:18.421Z,19.40
2018-02-23T08:07:44.778Z,21.45
2018-02-23T08:10:11.924Z,20.95
2018-02-23T08:12:39.046Z,21.35
2018-02-23T08:15:05.451Z,22.37
2018-02-23T08:17:31.806Z,20.75
2018-02-23T08:19:58.193Z,20.90
2018-02-23T08:22:24.586Z,21.67
2018-02-23T08:24:52.448Z,20.33
2018-02-23T08:27:18.824Z,22.40
2018-02-23T08:29:45.185Z,23.20
2018-02-23T08:32:11.551Z,23.48
2018-02-23T08:34:37.924Z,19.95
2018-02-23T08:37:04.319Z,25.65
2018-02-23T08:39:31.435Z,23.65
2018-02-23T08:41:57.926Z,28.75
2018-02-23T08:44:24.407Z,23.27
2018-02-23T08:46:50.769Z,21.55
2018-02-23T08:49:17.900Z,25.48
2018-02-23T08:51:44.281Z,22.20
2018-02-23T08:54:10.673Z,22.50
2018-02-23T08:56:37.071Z,21.70
2018-02-23T08:59:03.472Z,23.40
2018-02-23T09:01:30.590Z,23.17
2018-02-23T09:03:56.967Z,22.67
2018-02-23T09:06:23.335Z,27.90
2018-02-23T09:08:49.734Z,22.53
2018-02-23T09:11:16.150Z,23.58
2018-02-23T09:13:42.514Z,20.77
2018-02-23T09:16:08.912Z,21.48
2018-02-23T09:18:35.278Z,21.35
2018-02-23T09:21:01.652Z,20.80
2018-02-23T09:23:28.794Z,21.05
2018-02-23T09:25:55.183Z,23.30
2018-02-23T09:28:21.578Z,26.25
2018-02-23T09:30:48.684Z,21.17
2018-02-23T09:33:15.119Z,22.17
2018-02-23T09:35:41.503Z,22.67
2018-02-23T09:38:07.910Z,21.42
2018-02-23T09:40:35.054Z,21.83
2018-02-23T09:43:01.427Z,25.85
2018-02-23T09:45:27.798Z,24.35
2018-02-23T09:47:54.168Z,21.92
2018-02-23T09:50:20.524Z,20.48
2018-02-23T09:52:46.902Z,20.83
2018-02-23T09:55:13.275Z,21.45
2018-02-23T09:57:39.619Z,22.93
2018-02-23T10:00:06.012Z,22.10
2018-02-23T10:02:33.104Z,23.20
2018-02-23T10:04:59.482Z,21.07
2018-02-23T10:07:26.671Z,20.10
2018-02-23T10:09:53.023Z,26.57
2018-02-23T10:12:19.390Z,22.60
2018-02-23T10:14:45.809Z,22.47
2018-02-23T10:17:12.184Z,19.80
2018-02-23T10:19:38.600Z,21.13
2018-02-23T10:22:05.778Z,25.50
2018-02-23T10:24:32.134Z,20.93
2018-02-23T10:26:58.534Z,21.33
2018-02-23T10:29:24.894Z,25.47
2018-02-23T10:31:51.260Z,21.67
2018-02-23T10:34:17.631Z,21.30
2018-02-23T10:36:44.032Z,24.40
2018-02-23T10:39:10.443Z,21.73
2018-02-23T10:41:37.082Z,22.30
2018-02-23T10:44:03.474Z,21.80
2018-02-23T10:46:29.874Z,23.60
2018-02-23T10:48:56.261Z,22.13
2018-02-23T10:51:22.717Z,19.30
2018-02-23T10:53:49.863Z,20.03
2018-02-23T10:56:17.131Z,20.37
2018-02-23T10:58:44.296Z,20.33
2018-02-23T11:01:11.422Z,19.70
2018-02-23T11:03:37.794Z,20.73
2018-02-23T11:06:04.211Z,19.40
2018-02-23T11:08:31.364Z,19.90
2018-02-23T11:10:57.742Z,30.90
2018-02-23T11:13:24.120Z,43.27
2018-02-23T11:15:51.224Z,28.63
2018-02-23T11:18:17.580Z,25.93
2018-02-23T11:20:43.991Z,25.87
2018-02-23T11:23:10.354Z,21.40
2018-02-23T11:25:36.710Z,20.00
2018-02-23T11:28:03.072Z,19.80
2018-02-23T11:30:30.260Z,19.37
2018-02-23T11:32:56.654Z,30.90
2018-02-23T11:35:23.022Z,19.93
2018-02-23T11:37:49.407Z,19.77
2018-02-23T11:40:15.767Z,19.47
2018-02-23T11:42:42.132Z,20.33
2018-02-23T11:45:09.262Z,18.73
2018-02-23T11:47:35.630Z,19.40
2018-02-23T11:50:02.003Z,17.43
2018-02-23T11:52:28.372Z,17.50
2018-02-23T11:54:54.714Z,18.73
2018-02-23T11:57:27.127Z,19.37
2018-02-23T11:59:53.476Z,16.70
2018-02-23T12:02:19.855Z,18.60
2018-02-23T12:04:46.250Z,22.70
2018-02-23T12:07:12.624Z,16.57
2018-02-23T12:09:39.010Z,30.03
2018-02-23T12:12:05.379Z,16.77
2018-02-23T12:14:32.484Z,17.67
2018-02-23T12:16:58.867Z,16.33
2018-02-23T12:19:25.248Z,16.90
2018-02-23T12:21:51.619Z,17.27
2018-02-23T12:24:18.733Z,19.80
2018-02-23T12:26:45.117Z,17.00
2018-02-23T12:29:11.494Z,16.67
2018-02-23T12:31:37.854Z,17.50
2018-02-23T12:34:04.988Z,16.23
2018-02-23T12:36:31.329Z,17.60
2018-02-23T12:38:58.442Z,18.87
2018-02-23T12:41:24.833Z,21.80
2018-02-23T12:43:51.271Z,22.97
2018-02-23T12:46:17.659Z,17.70
2018-02-23T12:48:45.512Z,16.87
2018-02-23T12:51:11.918Z,16.50
2018-02-23T12:53:38.287Z,18.00
2018-02-23T12:56:04.668Z,18.43
2018-02-23T12:58:31.042Z,18.80
2018-02-23T13:00:57.461Z,14.30
2018-02-23T13:03:23.847Z,19.33
2018-02-23T13:05:50.944Z,17.60
2018-02-23T13:08:17.370Z,14.83
2018-02-23T13:10:43.744Z,16.60
2018-02-23T13:13:10.098Z,16.23
2018-02-23T13:15:37.213Z,15.60
2018-02-23T13:18:05.075Z,15.93
2018-02-23T13:20:31.444Z,14.73
2018-02-23T13:22:57.810Z,17.13
2018-02-23T13:25:24.236Z,15.50
2018-02-23T13:27:56.749Z,15.37
2018-02-23T13:30:23.189Z,16.00
2018-02-23T13:32:49.620Z,16.87
2018-02-23T13:35:16.055Z,16.60
2018-02-23T13:37:42.465Z,17.03
2018-02-23T13:40:08.892Z,17.13
2018-02-23T13:42:35.289Z,16.43
2018-02-23T13:45:01.706Z,18.10
2018-02-23T13:47:28.136Z,15.90
2018-02-23T13:49:55.227Z,15.00
2018-02-23T13:52:21.591Z,14.93
2018-02-23T13:54:52.061Z,17.53
2018-02-23T13:57:18.461Z,16.07
2018-02-23T13:59:45.599Z,17.20
2018-02-23T14:02:13.447Z,17.00
2018-02-23T14:04:39.814Z,16.20
2018-02-23T14:07:12.979Z,15.70
2018-02-23T14:09:39.384Z,16.83
2018-02-23T14:12:05.763Z,15.73
2018-02-23T14:14:32.878Z,16.77
2018-02-23T14:16:59.267Z,17.40
2018-02-23T14:19:25.632Z,16.73
2018-02-23T14:21:51.993Z,15.23
2018-02-23T14:24:18.408Z,15.87
2018-02-23T14:26:44.762Z,16.60
2018-02-23T14:29:11.871Z,18.80
2018-02-23T14:31:38.238Z,16.03
2018-02-23T14:34:04.622Z,18.03
2018-02-23T14:36:30.987Z,16.83
2018-02-23T14:38:57.333Z,15.80
2018-02-23T14:41:23.701Z,18.13
2018-02-23T14:43:50.076Z,16.63
2018-02-23T14:46:17.350Z,18.90
2018-02-23T14:48:56.709Z,18.17
2018-02-23T14:51:23.052Z,16.87
2018-02-23T14:53:49.436Z,17.63
2018-02-23T14:56:15.803Z,20.07
2018-02-23T14:58:42.178Z,19.00
2018-02-23T15:01:09.356Z,24.60
2018-02-23T15:03:35.729Z,18.00
2018-02-23T15:06:02.091Z,18.37
2018-02-23T15:08:28.458Z,18.27
2018-02-23T15:10:54.820Z,17.43
2018-02-23T15:13:21.211Z,19.50
2018-02-23T15:15:47.598Z,17.00
2018-02-23T15:18:13.975Z,19.47
2018-02-23T15:20:40.347Z,18.63
2018-02-23T15:23:07.462Z,20.53
2018-02-23T15:25:33.814Z,19.57
2018-02-23T15:28:00.920Z,21.57
2018-02-23T15:30:39.654Z,20.27
2018-02-23T15:33:06.030Z,20.40
2018-02-23T15:35:32.383Z,19.53
2018-02-23T15:37:58.743Z,18.60
2018-02-23T15:40:25.182Z,18.70
2018-02-23T15:42:51.589Z,19.57
2018-02-23T15:45:17.991Z,20.23
2018-02-23T15:47:49.391Z,30.73
2018-02-23T15:50:23.466Z,22.80
2018-02-23T15:52:49.945Z,22.50
2018-02-23T15:55:16.349Z,23.73
2018-02-23T15:57:49.023Z,25.17
2018-02-23T16:00:15.462Z,23.50
2018-02-23T16:02:41.990Z,24.30
2018-02-23T16:05:08.402Z,22.98
2018-02-23T16:07:34.836Z,24.73
2018-02-23T16:10:01.233Z,23.45
2018-02-23T16:12:28.408Z,22.02
2018-02-23T16:14:54.875Z,23.98
2018-02-23T16:17:21.350Z,20.55
2018-02-23T16:19:47.718Z,23.10
2018-02-23T16:22:14.108Z,21.90
2018-02-23T16:24:40.519Z,19.73
2018-02-23T16:27:06.886Z,22.25
2018-02-23T16:29:34.068Z,22.05
2018-02-23T16:32:00.424Z,18.95
2018-02-23T16:34:26.966Z,20.45
2018-02-23T16:36:53.366Z,27.25
2018-02-23T16:39:19.755Z,20.15
2018-02-23T16:41:46.899Z,23.35
2018-02-23T16:44:13.294Z,20.83
2018-02-23T16:46:39.704Z,21.12
2018-02-23T16:49:06.098Z,18.52
2018-02-23T16:51:32.490Z,19.02
2018-02-23T16:53:58.927Z,18.50
2018-02-23T16:56:25.310Z,18.75
2018-02-23T16:58:52.447Z,20.08
2018-02-23T17:01:20.491Z,16.65
2018-02-23T17:03:46.980Z,17.87
2018-02-23T17:06:13.389Z,21.90
2018-02-23T17:08:40.498Z,20.65
2018-02-23T17:11:06.891Z,18.48
2018-02-23T17:13:33.286Z,17.40
2018-02-23T17:15:59.701Z,20.00
2018-02-23T17:18:26.087Z,18.33
2018-02-23T17:20:52.484Z,18.23
2018-02-23T17:23:18.869Z,17.52
2018-02-23T17:25:45.237Z,17.75
2018-02-23T17:28:11.616Z,20.45
2018-02-23T17:30:37.982Z,17.75
2018-02-23T17:33:04.352Z,17.75
2018-02-23T17:35:31.468Z,18.95
2018-02-23T17:37:57.857Z,18.30
2018-02-23T17:40:24.217Z,19.60
2018-02-23T17:42:50.588Z,18.50
2018-02-23T17:45:16.950Z,16.83
2018-02-23T17:47:43.313Z,17.87
2018-02-23T17:50:09.703Z,19.42
2018-02-23T17:52:36.085Z,18.52
2018-02-23T17:55:02.516Z,20.45
2018-02-23T17:57:28.904Z,18.95
2018-02-23T17:59:55.286Z,22.17
2018-02-23T18:02:21.722Z,21.08
2018-02-23T18:04:48.091Z,17.60
2018-02-23T18:07:15.198Z,18.33
2018-02-23T18:09:41.560Z,22.95
2018-02-23T18:12:08.689Z,19.65
2018-02-23T18:14:35.080Z,18.00
2018-02-23T18:17:01.460Z,20.12
2018-02-23T18:19:27.832Z,22.40
2018-02-23T18:21:54.211Z,17.73
2018-02-23T18:24:20.593Z,17.30
2018-02-23T18:26:46.984Z,23.15
2018-02-23T18:29:13.346Z,20.90
2018-02-23T18:31:41.025Z,22.55
2018-02-23T18:34:07.379Z,22.08
2018-02-23T18:36:33.775Z,22.30
2018-02-23T18:39:00.876Z,28.02
2018-02-23T18:41:27.269Z,19.98
2018-02-23T18:43:53.651Z,20.55
2018-02-23T18:46:20.053Z,25.45
2018-02-23T18:48:46.422Z,19.20
2018-02-23T18:51:12.811Z,18.42
2018-02-23T18:53:39.198Z,23.98
2018-02-23T18:56:06.351Z,22.08
2018-02-23T19:01:05.705Z,20.17
2018-02-23T19:03:32.152Z,21.37
2018-02-23T19:05:58.582Z,19.85
2018-02-23T19:08:25.021Z,19.00
2018-02-23T19:10:51.444Z,20.35
2018-02-23T19:13:17.854Z,19.95
2018-02-23T19:15:44.294Z,22.20
2018-02-23T19:18:10.700Z,22.70
2018-02-23T19:20:37.869Z,22.13
2018-02-23T19:23:04.272Z,26.73
2018-02-23T19:25:31.462Z,22.13
2018-02-23T19:27:58.771Z,23.20
2018-02-23T19:30:25.236Z,22.05
2018-02-23T19:32:51.703Z,24.42
2018-02-23T19:35:18.098Z,26.15
2018-02-23T19:37:44.539Z,23.20
2018-02-23T19:40:11.912Z,23.45
2018-02-23T19:42:38.289Z,25.70
2018-02-23T19:45:05.390Z,23.75
2018-02-23T19:47:31.774Z,22.95
2018-02-23T19:49:58.922Z,23.85
2018-02-23T19:52:26.052Z,24.67
2018-02-23T19:54:52.435Z,24.33
2018-02-23T19:57:18.844Z,24.00
2018-02-23T19:59:46.005Z,25.17
2018-02-23T20:02:12.465Z,23.67
2018-02-23T20:04:39.533Z,23.12
2018-02-23T20:07:05.919Z,23.87
2018-02-23T20:09:33.036Z,22.13
2018-02-23T20:11:59.402Z,24.92
2018-02-23T20:14:25.771Z,22.37
2018-02-23T20:16:52.152Z,23.08
2018-02-23T20:19:20.020Z,22.77
2018-02-23T20:21:47.151Z,24.73
2018-02-23T20:24:13.519Z,22.60
2018-02-23T20:26:39.911Z,22.00
2018-02-23T20:29:06.365Z,23.87
2018-02-23T20:31:33.482Z,22.30
2018-02-23T20:33:59.857Z,22.48
2018-02-23T20:36:26.227Z,22.83
2018-02-23T20:38:52.587Z,22.27
2018-02-23T20:41:18.951Z,23.75
2018-02-23T20:43:45.361Z,22.55
2018-02-23T20:46:12.496Z,22.15
2018-02-23T20:48:38.868Z,23.87
2018-02-23T20:51:05.231Z,25.73
2018-02-23T20:53:31.591Z,23.38
2018-02-23T20:55:57.978Z,21.95
2018-02-23T20:58:24.344Z,22.27
2018-02-23T21:00:50.703Z,22.40
2018-02-23T21:03:17.801Z,24.15
2018-02-23T21:05:44.174Z,23.52
2018-02-23T21:08:10.573Z,21.70
2018-02-23T21:10:36.960Z,22.45
2018-02-23T21:13:03.326Z,22.50
2018-02-23T21:15:29.693Z,23.62
2018-02-23T21:17:56.050Z,22.48
2018-02-23T21:20:23.156Z,22.13
2018-02-23T21:22:49.519Z,22.92
2018-02-23T21:25:15.869Z,21.20
2018-02-23T21:27:42.332Z,20.77
2018-02-23T21:30:08.694Z,21.52
2018-02-23T21:32:35.085Z,21.50
2018-02-23T21:35:01.462Z,20.52
2018-02-23T21:37:27.821Z,20.88
2018-02-23T21:39:54.918Z,21.12
2018-02-23T21:42:21.309Z,20.90
2018-02-23T21:44:47.674Z,20.85
2018-02-23T21:47:14.062Z,21.52
2018-02-23T21:49:41.149Z,20.52
2018-02-23T21:52:07.551Z,19.95
2018-02-23T21:54:34.714Z,21.65
2018-02-23T21:57:01.090Z,22.30
2018-02-23T21:59:27.502Z,20.45
2018-02-23T22:01:53.878Z,22.05
2018-02-23T22:04:21.028Z,22.00
2018-02-23T22:06:48.154Z,20.08
2018-02-23T22:09:15.277Z,20.65
2018-02-23T22:11:41.691Z,20.52
2018-02-23T22:14:08.057Z,20.25
2018-02-23T22:16:34.418Z,20.67
2018-02-23T22:19:01.544Z,19.90
2018-02-23T22:21:27.938Z,22.27
2018-02-23T22:23:54.318Z,20.15
2018-02-23T22:26:21.448Z,20.35
2018-02-23T22:28:47.869Z,21.40
2018-02-23T22:31:14.232Z,21.20
2018-02-23T22:33:42.070Z,20.25
2018-02-23T22:36:08.460Z,23.05
2018-02-23T22:38:34.822Z,20.17
2018-02-23T22:41:01.975Z,20.65
2018-02-23T22:43:28.341Z,22.70
2018-02-23T22:45:54.757Z,21.70
2018-02-23T22:48:21.114Z,22.92
2018-02-23T22:50:47.471Z,22.70
2018-02-23T22:53:13.889Z,21.15
2018-02-23T22:55:41.027Z,22.13
2018-02-23T22:58:08.130Z,21.67
2018-02-23T23:00:34.488Z,21.73
2018-02-23T23:03:00.844Z,21.73
2018-02-23T23:05:27.950Z,22.73
2018-02-23T23:07:54.337Z,22.65
2018-02-23T23:10:20.738Z,21.37
2018-02-23T23:12:47.097Z,21.75
2018-02-23T23:15:14.211Z,22.33
2018-02-23T23:17:40.585Z,20.35
2018-02-23T23:20:06.946Z,21.10
2018-02-23T23:22:33.345Z,22.42
2018-02-23T23:24:59.725Z,21.08
2018-02-23T23:27:26.110Z,20.70
2018-02-23T23:29:52.501Z,22.92
2018-02-23T23:32:18.881Z,21.35
2018-02-23T23:34:45.274Z,22.48
2018-02-23T23:37:12.381Z,21.62
2018-02-23T23:39:38.752Z,22.35
2018-02-23T23:42:05.845Z,21.90
2018-02-23T23:44:32.199Z,22.67
2018-02-23T23:46:58.553Z,22.05
2018-02-23T23:49:24.926Z,22.48
2018-02-23T23:51:51.275Z,21.27
2018-02-23T23:54:17.635Z,23.87
2018-02-23T23:56:44.014Z,22.10
2018-02-23T23:59:10.393Z,23.70
